Time;durP1;ratioP1;P1;durP2;ratioP2;P2;SDS_P1;SDS_P2;PMS_P1;PMS_P2;Temp;Humidity;BMP_temperature;BMP_pressure;BME280_temperature;BME280_humidity;BME280_pressure;Samples;Min_cycle;Max_cycle;Signal;HPM_P1;HPM_P2
2023/09/10 00:01:25;;;;;;;1.05;0.95;;;;;;;23.54;63.05;101796.34;5055700;28;20028;-83
2023/09/10 00:03:51;;;;;;;0.32;0.32;;;;;;;23.56;62.53;101802.53;5054824;28;20036;-84
2023/09/10 00:06:17;;;;;;;0.10;0.10;;;;;;;23.54;62.98;101804.47;5051186;28;20021;-85
2023/09/10 00:08:43;;;;;;;0.35;0.32;;;;;;;23.55;62.76;101800.78;5043613;28;20041;-85
2023/09/10 00:11:09;;;;;;;0.25;0.25;;;;;;;23.56;62.87;101790.84;5052079;28;20501;-85
2023/09/10 00:13:36;;;;;;;0.60;0.60;;;;;;;23.55;63.07;101806.19;5046704;28;20037;-85
2023/09/10 00:16:02;;;;;;;0.10;0.10;;;;;;;23.53;63.04;101802.72;5050460;28;20061;-86
2023/09/10 00:18:31;;;;;;;0.30;0.30;;;;;;;23.54;63.03;101801.75;5048717;28;20036;-83
2023/09/10 00:20:57;;;;;;;0.10;0.10;;;;;;;23.51;63.00;101804.63;5048678;28;20067;-85
2023/09/10 00:23:24;;;;;;;0.55;0.55;;;;;;;23.50;63.01;101802.00;5054436;28;20028;-85
2023/09/10 00:25:50;;;;;;;0.10;0.10;;;;;;;23.48;62.91;101804.81;5046104;28;20452;-85
2023/09/10 00:28:16;;;;;;;0.10;0.10;;;;;;;23.46;63.16;101797.75;5047925;28;20393;-82
2023/09/10 00:30:42;;;;;;;0.70;0.60;;;;;;;23.45;62.79;101794.16;5054092;28;20036;-82
2023/09/10 00:33:08;;;;;;;0.10;0.10;;;;;;;23.43;63.10;101793.41;5047043;28;20036;-83
2023/09/10 00:35:34;;;;;;;1.00;0.45;;;;;;;23.42;63.09;101794.38;5051243;28;20023;-83
2023/09/10 00:38:00;;;;;;;0.10;0.10;;;;;;;23.40;62.79;101794.47;5050130;28;20047;-83
2023/09/10 00:40:27;;;;;;;0.10;0.10;;;;;;;23.40;62.60;101790.88;5055011;28;20446;-83
2023/09/10 00:42:53;;;;;;;0.75;0.75;;;;;;;23.37;63.23;101791.06;5054374;28;20036;-82
2023/09/10 00:45:19;;;;;;;0.43;0.43;;;;;;;23.36;63.09;101789.31;5053615;28;20017;-82
2023/09/10 00:47:46;;;;;;;0.15;0.15;;;;;;;23.34;63.06;101788.53;5048279;28;20032;-82
2023/09/10 00:50:16;;;;;;;0.05;0.05;;;;;;;23.36;63.36;101789.31;5050574;28;20490;-84
2023/09/10 00:52:48;;;;;;;0.25;0.25;;;;;;;23.36;63.17;101789.31;5059303;28;20052;-84
2023/09/10 00:55:16;;;;;;;0.47;0.22;;;;;;;23.33;62.49;101784.06;5064906;28;20033;-82
2023/09/10 00:57:43;;;;;;;0.20;0.20;;;;;;;23.32;62.52;101788.63;5049584;28;20111;-81
2023/09/10 01:00:12;;;;;;;0.10;0.10;;;;;;;23.28;62.81;101787.06;5051838;28;20048;-79
2023/09/10 01:02:43;;;;;;;0.30;0.30;;;;;;;23.27;62.78;101788.88;5051657;28;20434;-83
2023/09/10 01:05:11;;;;;;;0.20;0.20;;;;;;;23.25;63.22;101780.03;5052790;28;20024;-84
2023/09/10 01:07:38;;;;;;;1.08;1.00;;;;;;;23.24;62.95;101783.69;5056255;28;20040;-84
2023/09/10 01:10:05;;;;;;;0.22;0.22;;;;;;;23.24;62.74;101785.50;5045480;28;20025;-85
2023/09/10 01:15:39;;;;;;;0.28;0.25;;;;;;;23.23;63.65;101789.19;5104701;27;20411;-82
2023/09/10 01:18:19;;;;;;;0.30;0.30;;;;;;;23.21;63.65;101788.38;5087402;28;20408;-82
2023/09/10 01:21:26;;;;;;;0.68;0.68;;;;;;;23.24;63.34;101782.78;5084704;28;20040;-83
2023/09/10 01:24:07;;;;;;;0.10;0.10;;;;;;;23.20;63.12;101786.63;5084168;28;20046;-84
2023/09/10 01:26:36;;;;;;;0.40;0.40;;;;;;;23.15;62.89;101786.88;5089996;28;20032;-85
2023/09/10 01:29:04;;;;;;;0.10;0.10;;;;;;;23.12;63.28;101787.06;5095389;28;20025;-83
2023/09/10 01:31:36;;;;;;;0.63;0.63;;;;;;;23.11;63.48;101785.31;5096806;28;20020;-83
2023/09/10 01:34:07;;;;;;;0.10;0.10;;;;;;;23.09;63.55;101789.94;5094545;28;20020;-82
2023/09/10 01:36:40;;;;;;;0.30;0.30;;;;;;;23.05;63.68;101791.06;5092882;28;20032;-85
2023/09/10 01:39:36;;;;;;;0.20;0.20;;;;;;;23.04;63.61;101794.72;5087503;28;20076;-82
2023/09/10 01:42:05;;;;;;;0.20;0.20;;;;;;;22.99;63.22;101792.31;5089743;28;20024;-85
2023/09/10 01:44:32;;;;;;;0.98;0.47;;;;;;;22.97;63.77;101787.94;5092415;28;20017;-84
2023/09/10 01:47:00;;;;;;;1.45;1.20;;;;;;;22.94;63.77;101797.09;5094518;28;20028;-83
2023/09/10 01:49:26;;;;;;;0.20;0.20;;;;;;;22.92;63.63;101797.19;5096828;28;20016;-83
2023/09/10 01:51:52;;;;;;;0.10;0.10;;;;;;;22.91;63.31;101798.13;5086148;28;20055;-84
2023/09/10 01:54:18;;;;;;;0.03;0.03;;;;;;;22.90;63.89;101793.72;5086090;28;20032;-84
2023/09/10 01:56:44;;;;;;;0.20;0.20;;;;;;;22.88;63.76;101800.13;5086870;28;20032;-82
2023/09/10 01:59:11;;;;;;;0.10;0.10;;;;;;;22.88;63.76;101792.03;5092082;28;20032;-82
2023/09/10 02:01:37;;;;;;;0.30;0.30;;;;;;;22.85;63.65;101801.19;5086615;28;20030;-82
2023/09/10 02:04:03;;;;;;;0.13;0.13;;;;;;;22.85;63.84;101795.78;5094486;28;20021;-83
2023/09/10 02:06:29;;;;;;;0.20;0.20;;;;;;;22.84;63.77;101804.88;5093049;28;20119;-85
2023/09/10 02:09:00;;;;;;;0.10;0.10;;;;;;;22.83;64.20;101800.44;5081769;28;20024;-85
2023/09/10 02:11:27;;;;;;;0.10;0.10;;;;;;;22.81;64.24;101810.44;5092062;28;20027;-84
2023/09/10 02:13:53;;;;;;;0.25;0.25;;;;;;;22.81;64.32;101799.63;5089447;28;20016;-84
2023/09/10 02:16:20;;;;;;;0.10;0.10;;;;;;;22.80;64.26;101803.28;5089583;28;20036;-84
2023/09/10 02:18:46;;;;;;;0.10;0.10;;;;;;;22.78;64.31;101799.81;5093766;28;20095;-85
2023/09/10 02:21:12;;;;;;;2.63;0.75;;;;;;;22.77;64.42;101796.22;5088037;28;20044;-85
2023/09/10 02:23:42;;;;;;;0.55;0.45;;;;;;;22.77;64.25;101803.47;5092069;28;20111;-85
2023/09/10 02:26:08;;;;;;;0.20;0.20;;;;;;;22.75;64.47;101794.56;5080689;28;20510;-85
2023/09/10 02:28:34;;;;;;;0.63;0.63;;;;;;;22.75;64.07;101805.38;5081571;28;20035;-85
2023/09/10 02:31:08;;;;;;;0.38;0.38;;;;;;;22.76;64.67;101802.59;5073554;28;20070;-84
2023/09/10 02:33:35;;;;;;;0.15;0.15;;;;;;;22.70;65.13;101802.94;5080488;28;20028;-84
2023/09/10 02:36:02;;;;;;;1.90;1.15;;;;;;;22.69;64.81;101803.03;5075935;28;20028;-83
2023/09/10 02:38:29;;;;;;;0.20;0.20;;;;;;;22.68;64.44;101798.56;5072569;28;20028;-85
2023/09/10 02:40:55;;;;;;;0.10;0.10;;;;;;;22.65;64.61;101794.22;5070503;28;20039;-84
2023/09/10 02:43:22;;;;;;;0.28;0.28;;;;;;;22.65;64.64;101799.63;5076294;28;20021;-85
2023/09/10 02:45:49;;;;;;;0.35;0.35;;;;;;;22.62;64.46;101795.25;5079059;28;20034;-84
2023/09/10 02:48:15;;;;;;;0.10;0.10;;;;;;;22.60;65.01;101799.91;5072081;28;20110;-84
2023/09/10 02:50:41;;;;;;;0.10;0.10;;;;;;;22.59;64.87;101790.03;5076578;28;20025;-86
2023/09/10 02:53:07;;;;;;;0.05;0.05;;;;;;;22.57;64.96;101794.66;5079360;28;20178;-85
2023/09/10 02:55:33;;;;;;;0.22;0.22;;;;;;;22.56;64.65;101795.59;5078883;28;20062;-83
2023/09/10 02:57:59;;;;;;;0.20;0.20;;;;;;;22.55;64.41;101788.44;5081607;28;20107;-84
2023/09/10 03:00:25;;;;;;;0.40;0.40;;;;;;;22.53;64.56;101787.69;5079681;28;20086;-85
2023/09/10 03:02:55;;;;;;;0.20;0.20;;;;;;;22.54;64.75;101786.72;5082555;28;20047;-85
2023/09/10 03:05:22;;;;;;;0.03;0.03;;;;;;;22.51;64.75;101789.59;5069047;28;20102;-85
2023/09/10 03:07:56;;;;;;;0.47;0.47;;;;;;;22.54;64.68;101792.13;5078258;28;20087;-85
2023/09/10 03:10:22;;;;;;;0.20;0.20;;;;;;;22.49;64.35;101788.78;5073242;28;20031;-85
2023/09/10 03:12:49;;;;;;;0.43;0.43;;;;;;;22.48;64.71;101787.06;5076803;28;20045;-86
2023/09/10 03:15:15;;;;;;;0.25;0.25;;;;;;;22.47;64.54;101785.31;5072295;28;20057;-86
2023/09/10 03:17:41;;;;;;;0.90;0.77;;;;;;;22.46;64.96;101788.97;5085536;28;20052;-84
2023/09/10 03:20:09;;;;;;;0.10;0.10;;;;;;;22.45;65.05;101789.94;5086003;28;20021;-84
2023/09/10 03:22:36;;;;;;;0.35;0.35;;;;;;;22.43;64.91;101783.72;5078752;28;20486;-84
2023/09/10 03:25:02;;;;;;;0.10;0.10;;;;;;;22.43;64.70;101789.13;5077867;28;20029;-84
2023/09/10 03:27:29;;;;;;;0.40;0.40;;;;;;;22.41;64.84;101782.97;5076802;28;20028;-85
2023/09/10 03:29:55;;;;;;;0.50;0.47;;;;;;;22.41;65.01;101785.66;5074188;28;20091;-85
2023/09/10 03:32:21;;;;;;;1.55;1.08;;;;;;;22.39;65.18;101787.56;5079826;28;20051;-85
2023/09/10 03:34:47;;;;;;;0.28;0.28;;;;;;;22.38;65.24;101785.81;5082397;28;20024;-85
2023/09/10 03:37:13;;;;;;;0.20;0.20;;;;;;;22.37;65.13;101774.16;5075268;28;20552;-84
2023/09/10 03:39:39;;;;;;;0.20;0.20;;;;;;;22.38;65.56;101780.41;5079167;28;20032;-85
2023/09/10 03:42:05;;;;;;;0.28;0.28;;;;;;;22.35;65.54;101773.31;5079316;28;20036;-84
2023/09/10 03:44:31;;;;;;;0.43;0.43;;;;;;;22.35;65.43;101775.16;5079444;28;20461;-84
2023/09/10 03:46:57;;;;;;;0.15;0.15;;;;;;;22.34;65.20;101776.13;5080358;28;20040;-84
2023/09/10 03:49:23;;;;;;;0.10;0.10;;;;;;;22.33;65.44;101782.47;5082794;28;20066;-84
2023/09/10 03:51:51;;;;;;;0.10;0.10;;;;;;;22.32;65.17;101775.31;5081152;28;20039;-84
2023/09/10 03:54:17;;;;;;;1.45;1.35;;;;;;;22.29;65.52;101776.38;5073657;28;20028;-84
2023/09/10 03:56:43;;;;;;;0.30;0.30;;;;;;;22.28;65.46;101772.81;5079729;28;20028;-85
2023/09/10 03:59:10;;;;;;;1.10;0.73;;;;;;;22.26;65.69;101769.31;5080212;28;20024;-85
2023/09/10 04:01:36;;;;;;;0.35;0.35;;;;;;;22.26;65.72;101766.59;5079451;28;20040;-85
2023/09/10 04:04:04;;;;;;;1.17;0.82;;;;;;;22.27;65.47;101768.34;5075643;28;20020;-86
2023/09/10 04:06:30;;;;;;;0.00;0.00;;;;;;;22.26;65.27;101769.31;5071787;28;20028;-85
2023/09/10 04:08:56;;;;;;;0.30;0.30;;;;;;;22.25;65.65;101767.56;5079207;28;20108;-84
2023/09/10 04:11:22;;;;;;;0.03;0.03;;;;;;;22.27;65.41;101768.34;5078196;28;20044;-86
2023/09/10 04:13:48;;;;;;;1.45;0.68;;;;;;;22.29;65.61;101771.84;5077791;28;20429;-87
2023/09/10 04:16:14;;;;;;;0.00;0.00;;;;;;;22.30;65.29;101773.56;5076923;28;20178;-86
2023/09/10 04:18:41;;;;;;;0.52;0.50;;;;;;;22.30;65.26;101776.28;5075333;28;20032;-86
2023/09/10 04:21:07;;;;;;;0.10;0.10;;;;;;;22.28;65.46;101767.41;5072902;28;20039;-86
2023/09/10 04:23:33;;;;;;;1.13;0.88;;;;;;;22.26;65.63;101773.84;5069783;28;20071;-86
2023/09/10 04:25:59;;;;;;;0.63;0.63;;;;;;;22.25;65.74;101778.34;5073925;28;20513;-86
2023/09/10 04:28:25;;;;;;;0.50;0.50;;;;;;;22.26;65.63;101773.84;5075394;28;20127;-85
2023/09/10 04:30:51;;;;;;;0.38;0.32;;;;;;;22.24;65.64;101782.03;5080321;28;20032;-85
2023/09/10 04:33:17;;;;;;;0.13;0.13;;;;;;;22.23;65.81;101785.69;5079823;28;20028;-84
2023/09/10 04:36:01;;;;;;;0.08;0.08;;;;;;;22.28;66.01;101774.63;5076294;28;20039;-86
2023/09/10 04:38:27;;;;;;;1.70;0.93;;;;;;;22.23;65.90;101769.50;5076313;28;20032;-86
2023/09/10 04:40:54;;;;;;;0.80;0.47;;;;;;;22.20;66.29;101771.47;5080775;28;20043;-85
2023/09/10 04:43:20;;;;;;;0.73;0.73;;;;;;;22.21;66.00;101779.47;5080007;28;20077;-84
2023/09/10 04:45:47;;;;;;;0.45;0.45;;;;;;;22.21;65.77;101768.69;5082010;28;20025;-85
2023/09/10 04:48:14;;;;;;;1.00;1.00;;;;;;;22.20;66.41;101764.25;5078813;28;20044;-83
2023/09/10 04:50:40;;;;;;;1.15;1.05;;;;;;;22.17;66.60;101775.22;5084369;28;20074;-84
2023/09/10 04:53:06;;;;;;;0.10;0.10;;;;;;;22.18;66.34;101773.38;5083880;28;20071;-85
2023/09/10 04:55:32;;;;;;;0.22;0.22;;;;;;;22.15;66.47;101769.03;5083362;28;20024;-84
2023/09/10 04:57:58;;;;;;;0.63;0.63;;;;;;;22.18;66.31;101779.66;5080523;28;20059;-84
2023/09/10 05:00:24;;;;;;;0.38;0.38;;;;;;;22.18;66.45;101774.28;5082374;28;20036;-85
2023/09/10 05:02:50;;;;;;;0.55;0.55;;;;;;;22.19;66.25;101775.13;5081965;28;20272;-85
2023/09/10 05:05:16;;;;;;;1.92;0.63;;;;;;;22.19;66.32;101781.38;5076086;28;20020;-85
2023/09/10 05:07:43;;;;;;;1.33;0.52;;;;;;;22.19;66.24;101778.69;5079982;28;20028;-85
2023/09/10 05:10:10;;;;;;;0.75;0.75;;;;;;;22.21;65.90;101779.47;5077953;28;20045;-85
2023/09/10 05:12:36;;;;;;;1.48;1.08;;;;;;;22.20;66.18;101782.28;5079733;28;20029;-85
2023/09/10 05:15:03;;;;;;;0.20;0.20;;;;;;;22.22;66.28;101780.34;5076054;28;20119;-84
2023/09/10 05:17:29;;;;;;;0.22;0.22;;;;;;;22.20;66.56;101777.75;5073365;28;20032;-85
2023/09/10 05:19:55;;;;;;;0.88;0.88;;;;;;;22.22;66.62;101774.94;5078761;28;20060;-86
2023/09/10 05:22:21;;;;;;;0.43;0.43;;;;;;;22.23;66.65;101782.97;5072122;28;20065;-86
2023/09/10 05:24:47;;;;;;;0.65;0.65;;;;;;;22.23;66.50;101772.19;5072165;28;20058;-86
2023/09/10 05:27:13;;;;;;;0.85;0.85;;;;;;;22.24;66.44;101783.84;5071919;28;20549;-85
2023/09/10 05:29:39;;;;;;;0.17;0.17;;;;;;;22.22;66.75;101780.34;5069311;28;20040;-86
2023/09/10 05:32:05;;;;;;;0.47;0.47;;;;;;;22.20;66.82;101785.84;5071706;28;20033;-86
2023/09/10 05:34:31;;;;;;;7.28;1.08;;;;;;;22.22;66.65;101774.94;5078917;28;20027;-85
2023/09/10 05:36:58;;;;;;;0.20;0.20;;;;;;;22.20;67.49;101779.56;5079145;28;20041;-85
2023/09/10 05:39:24;;;;;;;0.40;0.40;;;;;;;22.22;66.94;101778.53;5078104;28;20009;-85
2023/09/10 05:41:50;;;;;;;0.40;0.40;;;;;;;22.24;66.91;101779.34;5093835;23;20053;-87
2023/09/10 05:44:16;;;;;;;0.70;0.70;;;;;;;22.25;66.89;101788.28;5039308;28;20508;-86
2023/09/10 05:46:42;;;;;;;0.68;0.68;;;;;;;22.26;67.06;101785.50;5043496;28;20033;-91
2023/09/10 05:49:08;;;;;;;3.35;1.40;;;;;;;22.28;67.19;101783.59;5063558;28;20022;-89
2023/09/10 05:51:34;;;;;;;0.15;0.15;;;;;;;22.30;67.07;101784.38;5045768;28;20056;-87
2023/09/10 05:54:00;;;;;;;0.95;0.95;;;;;;;22.36;66.94;101785.88;5033709;28;20017;-87
2023/09/10 05:56:27;;;;;;;0.63;0.63;;;;;;;22.38;66.86;101785.81;5030458;28;20087;-88
2023/09/10 05:58:54;;;;;;;0.50;0.50;;;;;;;22.40;67.23;101790.16;5030198;28;20075;-86
2023/09/10 06:01:20;;;;;;;0.82;0.82;;;;;;;22.44;66.59;101786.38;5030761;28;20049;-87
2023/09/10 06:03:46;;;;;;;1.35;1.27;;;;;;;22.47;66.90;101785.31;5033026;28;20036;-87
2023/09/10 06:06:12;;;;;;;0.65;0.60;;;;;;;22.47;67.14;101785.31;5032042;28;20037;-88
2023/09/10 06:08:38;;;;;;;1.25;1.15;;;;;;;22.45;67.48;101788.13;5033735;28;20025;-87
2023/09/10 06:11:04;;;;;;;5.47;1.45;;;;;;;22.49;66.76;101786.09;5034400;28;20025;-87
2023/09/10 06:13:31;;;;;;;0.10;0.10;;;;;;;22.52;66.93;101793.16;5035221;28;20079;-87
2023/09/10 06:15:58;;;;;;;3.83;1.10;;;;;;;22.50;67.30;101795.09;5034812;28;20025;-87
2023/09/10 06:18:24;;;;;;;0.85;0.85;;;;;;;22.53;67.22;101798.50;5027653;28;20048;-86
2023/09/10 06:20:50;;;;;;;0.90;0.88;;;;;;;22.54;67.55;101797.53;5034325;28;20029;-86
2023/09/10 06:23:16;;;;;;;1.27;1.27;;;;;;;22.57;67.48;101797.34;5033308;28;20064;-86
2023/09/10 06:25:42;;;;;;;1.17;1.17;;;;;;;22.59;67.61;101795.44;5033834;28;20091;-86
2023/09/10 06:28:08;;;;;;;0.43;0.43;;;;;;;22.61;67.91;101808.84;5034225;28;20029;-86
2023/09/10 06:30:34;;;;;;;0.73;0.50;;;;;;;22.62;67.86;101806.06;5032788;28;20025;-86
2023/09/10 06:33:00;;;;;;;0.68;0.55;;;;;;;22.64;67.89;101807.81;5032117;28;20092;-87
2023/09/10 06:35:26;;;;;;;2.65;2.45;;;;;;;22.72;67.51;101811.81;5032044;28;20033;-86
2023/09/10 06:37:53;;;;;;;0.75;0.75;;;;;;;22.78;67.60;101816.88;5034101;28;20057;-86
2023/09/10 06:40:19;;;;;;;1.75;1.25;;;;;;;22.87;67.33;101817.34;5033949;28;20026;-88
2023/09/10 06:42:45;;;;;;;2.28;1.17;;;;;;;22.90;67.63;101818.03;5027714;28;20025;-86
2023/09/10 06:45:11;;;;;;;0.80;0.80;;;;;;;22.98;67.13;101819.41;5033834;28;20091;-87
2023/09/10 06:47:37;;;;;;;0.63;0.63;;;;;;;23.02;67.29;101821.84;5035579;28;20030;-87
2023/09/10 06:50:04;;;;;;;0.98;0.90;;;;;;;23.07;67.50;101821.59;5035026;28;20021;-86
2023/09/10 06:52:30;;;;;;;0.50;0.50;;;;;;;23.13;67.20;101823.06;5033848;28;20080;-86
2023/09/10 06:54:56;;;;;;;2.35;2.15;;;;;;;23.16;67.14;101815.69;5033492;28;20403;-86
2023/09/10 06:57:22;;;;;;;1.05;0.70;;;;;;;23.26;66.70;101821.44;5025623;28;20091;-85
2023/09/10 06:59:48;;;;;;;1.52;1.42;;;;;;;23.22;67.07;101820.75;5034589;28;20071;-85
2023/09/10 07:02:14;;;;;;;3.38;1.23;;;;;;;23.30;67.01;101817.56;5038880;28;20044;-85
2023/09/10 07:04:47;;;;;;;0.50;0.50;;;;;;;23.39;67.06;101816.16;5035311;28;20037;-85
2023/09/10 07:07:14;;;;;;;1.83;1.73;;;;;;;23.52;66.77;101819.03;5029019;28;20092;-85
2023/09/10 07:09:40;;;;;;;5.75;1.88;;;;;;;23.54;66.63;101817.97;5031725;28;20028;-85
2023/09/10 07:12:07;;;;;;;1.42;1.33;;;;;;;23.58;66.50;101819.53;5033825;28;20033;-85
2023/09/10 07:14:33;;;;;;;0.80;0.80;;;;;;;23.71;66.41;101821.50;5030047;28;20021;-85
2023/09/10 07:16:59;;;;;;;1.30;0.70;;;;;;;23.81;65.85;101816.41;5033808;28;20147;-85
2023/09/10 07:19:25;;;;;;;0.50;0.50;;;;;;;23.81;66.32;101822.69;5038569;28;20068;-84
2023/09/10 07:21:51;;;;;;;0.22;0.22;;;;;;;23.83;66.07;101818.06;5037561;28;20021;-84
2023/09/10 07:24:17;;;;;;;0.90;0.90;;;;;;;23.87;65.90;101819.59;5038360;28;20095;-85
2023/09/10 07:26:44;;;;;;;0.82;0.82;;;;;;;23.98;65.69;101813.56;5036589;28;20064;-85
2023/09/10 07:29:15;;;;;;;2.08;1.98;;;;;;;24.01;65.94;101815.22;5033429;28;20033;-85
2023/09/10 07:31:42;;;;;;;1.00;1.00;;;;;;;24.10;65.51;101817.38;5034742;28;20122;-85
2023/09/10 07:34:09;;;;;;;0.47;0.47;;;;;;;24.16;65.75;101811.56;5030830;28;20876;-85
2023/09/10 07:36:35;;;;;;;0.75;0.75;;;;;;;24.22;65.71;101826.56;5034651;28;20037;-84
2023/09/10 07:39:01;;;;;;;0.82;0.82;;;;;;;24.29;65.37;101827.91;5034260;28;20079;-85
2023/09/10 07:41:27;;;;;;;0.25;0.25;;;;;;;24.37;65.46;101822.00;5035304;28;20048;-84
2023/09/10 07:43:53;;;;;;;1.15;1.10;;;;;;;24.49;65.41;101823.94;5030735;28;20025;-85
2023/09/10 07:46:20;;;;;;;1.95;1.85;;;;;;;24.55;65.41;101817.28;5022222;28;20038;-85
2023/09/10 07:48:46;;;;;;;0.20;0.20;;;;;;;24.60;65.59;101820.56;5019616;28;20671;-86
2023/09/10 07:51:12;;;;;;;1.65;1.55;;;;;;;24.64;64.99;101823.94;5017908;28;20030;-86
2023/09/10 07:53:38;;;;;;;1.10;1.05;;;;;;;24.77;64.48;101824.91;5025195;28;20072;-85
2023/09/10 07:56:04;;;;;;;0.88;0.85;;;;;;;24.85;64.23;101819.88;5019764;28;20521;-86
2023/09/10 07:58:30;;;;;;;4.10;1.52;;;;;;;24.90;64.21;101821.41;5029011;28;20115;-87
2023/09/10 08:00:57;;;;;;;3.13;2.83;;;;;;;24.98;64.42;101821.78;5024584;28;20048;-84
2023/09/10 08:03:23;;;;;;;1.05;0.95;;;;;;;25.04;64.19;101818.66;5031110;28;20021;-85
2023/09/10 08:05:49;;;;;;;1.30;1.30;;;;;;;25.12;64.03;101832.59;5018306;28;20508;-85
2023/09/10 08:08:15;;;;;;;0.63;0.63;;;;;;;25.22;63.98;101832.81;5023431;28;20033;-85
2023/09/10 08:10:44;;;;;;;2.33;2.22;;;;;;;25.24;63.87;101835.47;5033251;28;20037;-86
2023/09/10 08:13:12;;;;;;;1.85;1.75;;;;;;;25.29;63.82;101844.16;5029939;28;20156;-86
2023/09/10 08:15:40;;;;;;;1.73;1.23;;;;;;;25.36;63.68;101840.06;5026745;28;20056;-86
2023/09/10 08:18:10;;;;;;;1.20;1.17;;;;;;;25.49;63.48;101827.41;5029292;28;20037;-84
2023/09/10 08:20:38;;;;;;;2.65;1.17;;;;;;;25.57;63.45;101831.47;5022596;28;20033;-86
2023/09/10 08:23:04;;;;;;;1.85;1.75;;;;;;;25.67;63.19;101829.84;5019399;28;20509;-84
2023/09/10 08:25:31;;;;;;;1.00;1.00;;;;;;;25.78;63.03;101831.84;5018073;28;20553;-86
2023/09/10 08:27:57;;;;;;;4.30;2.05;;;;;;;25.86;63.23;101825.88;5019821;28;20038;-85
2023/09/10 08:30:23;;;;;;;0.50;0.50;;;;;;;25.94;62.53;101824.34;5019743;28;20025;-85
2023/09/10 08:32:49;;;;;;;1.65;0.85;;;;;;;26.02;62.39;101815.69;5027320;28;20022;-84
2023/09/10 08:35:18;;;;;;;2.97;2.78;;;;;;;26.13;62.49;101813.13;5021102;28;20397;-84
2023/09/10 08:37:44;;;;;;;1.50;1.08;;;;;;;26.25;62.57;101810.50;5027866;28;20094;-84
2023/09/10 08:40:10;;;;;;;0.65;0.65;;;;;;;26.35;62.23;101821.59;5026702;28;20032;-83
2023/09/10 08:45:34;;;;;;;1.40;1.30;;;;;;;26.54;62.15;101804.81;5100565;27;20409;-80
2023/09/10 08:48:01;;;;;;;2.97;1.38;;;;;;;26.54;62.20;101802.09;5092517;28;20043;-80
2023/09/10 08:50:28;;;;;;;0.25;0.25;;;;;;;26.60;61.41;101804.38;5089213;28;20468;-80
2023/09/10 08:52:57;;;;;;;2.47;2.35;;;;;;;26.84;61.53;101803.56;5090907;28;20043;-80
2023/09/10 08:55:25;;;;;;;0.70;0.70;;;;;;;26.88;61.75;101805.97;5090111;28;20063;-80
2023/09/10 08:57:53;;;;;;;0.52;0.50;;;;;;;27.08;61.37;101799.03;5091405;28;20039;-80
2023/09/10 09:00:22;;;;;;;0.40;0.40;;;;;;;27.19;61.49;101805.50;5101579;28;20057;-80
2023/09/10 09:02:48;;;;;;;0.30;0.30;;;;;;;27.28;60.40;101807.53;5082778;28;20089;-81
2023/09/10 09:05:14;;;;;;;0.38;0.38;;;;;;;27.48;60.43;101799.72;5088337;28;20043;-81
2023/09/10 09:07:51;;;;;;;2.08;1.80;;;;;;;27.53;59.89;101806.56;5089789;28;20096;-81
2023/09/10 09:10:26;;;;;;;2.67;1.73;;;;;;;27.67;59.83;101810.91;5084852;28;21629;-80
2023/09/10 09:12:57;;;;;;;5.28;1.65;;;;;;;27.78;59.85;101807.38;5085448;28;20052;-80
2023/09/10 09:15:25;;;;;;;1.70;1.60;;;;;;;27.89;59.83;101803.81;5080666;28;20744;-80
2023/09/10 09:17:52;;;;;;;0.73;0.73;;;;;;;27.99;59.44;101807.53;5088862;28;20032;-79
2023/09/10 09:20:19;;;;;;;0.95;0.95;;;;;;;28.12;59.67;101806.59;5088241;28;20025;-80
2023/09/10 09:22:50;;;;;;;1.23;1.13;;;;;;;28.28;58.81;101804.38;5081135;28;20191;-80
2023/09/10 09:25:16;;;;;;;0.93;0.93;;;;;;;28.31;58.22;101801.38;5072621;28;20068;-80
2023/09/10 09:27:44;;;;;;;0.20;0.20;;;;;;;28.42;58.58;101795.06;5106118;28;20047;-80
2023/09/10 09:30:11;;;;;;;0.47;0.32;;;;;;;28.50;57.58;101802.63;5074545;28;20379;-80
2023/09/10 09:32:38;;;;;;;1.88;1.77;;;;;;;28.62;57.74;101801.63;5088121;28;20173;-80
2023/09/10 09:35:08;;;;;;;1.52;1.42;;;;;;;28.78;57.29;101803.13;5088593;28;20020;-80
2023/09/10 09:37:36;;;;;;;0.73;0.73;;;;;;;28.84;55.51;101799.91;5087509;28;20060;-79
2023/09/10 09:40:03;;;;;;;0.90;0.90;;;;;;;28.89;55.13;101797.66;5082526;28;20027;-80
2023/09/10 09:42:30;;;;;;;0.35;0.35;;;;;;;28.98;56.24;101796.88;5074693;28;20039;-80
2023/09/10 09:44:57;;;;;;;0.30;0.30;;;;;;;29.05;55.31;101799.97;5099045;28;20048;-79
2023/09/10 09:47:23;;;;;;;0.60;0.60;;;;;;;29.18;55.12;101802.53;5096936;28;20392;-80
2023/09/10 09:49:50;;;;;;;3.10;1.63;;;;;;;29.28;55.46;101798.00;5098269;28;20025;-80
2023/09/10 09:52:18;;;;;;;0.60;0.55;;;;;;;29.40;54.59;101785.22;5106339;28;20027;-80
2023/09/10 09:54:46;;;;;;;0.93;0.93;;;;;;;29.48;54.11;101793.59;5088184;28;20111;-80
2023/09/10 09:57:12;;;;;;;0.40;0.40;;;;;;;29.60;54.33;101786.22;5086560;28;20027;-80
2023/09/10 09:59:38;;;;;;;18.70;1.02;;;;;;;29.65;54.17;101791.28;5061189;28;20041;-80
2023/09/10 10:02:08;;;;;;;1.15;0.60;;;;;;;29.77;54.22;101792.09;5068908;28;21475;-80
2023/09/10 10:04:35;;;;;;;0.68;0.68;;;;;;;29.93;55.14;101781.56;5067969;28;20025;-80
2023/09/10 10:07:02;;;;;;;0.75;0.75;;;;;;;30.04;54.04;101782.50;5090934;28;20020;-79
2023/09/10 10:09:37;;;;;;;1.52;0.77;;;;;;;30.11;53.23;101780.97;5096475;28;20110;-78
2023/09/10 10:12:04;;;;;;;0.77;0.77;;;;;;;30.18;52.98;101773.94;5094507;28;20056;-80
2023/09/10 10:14:32;;;;;;;0.25;0.25;;;;;;;30.29;52.52;101772.97;5075638;28;20055;-78
2023/09/10 10:17:03;;;;;;;0.40;0.40;;;;;;;30.41;52.42;101760.94;5079038;28;20059;-79
2023/09/10 10:19:30;;;;;;;1.15;0.65;;;;;;;30.54;53.40;101760.69;5063518;28;20116;-79
2023/09/10 10:21:57;;;;;;;0.20;0.20;;;;;;;30.68;51.75;101769.53;5080988;28;20077;-79
2023/09/10 10:24:24;;;;;;;0.40;0.40;;;;;;;30.81;51.30;101761.94;5068442;28;20115;-80
2023/09/10 10:26:52;;;;;;;0.85;0.85;;;;;;;31.03;51.56;101765.41;5077023;28;20081;-80
2023/09/10 10:29:19;;;;;;;0.30;0.30;;;;;;;31.08;52.18;101758.53;5071664;28;20414;-81
2023/09/10 10:31:48;;;;;;;1.30;0.90;;;;;;;31.23;51.04;101763.56;5079513;28;20020;-80
2023/09/10 10:34:19;;;;;;;0.15;0.15;;;;;;;31.19;50.18;101757.53;5078989;28;20031;-80
2023/09/10 10:45:28;;;;;;;0.80;0.80;;;;;;;31.71;49.87;101750.84;5096566;27;20121;-80
2023/09/10 10:47:59;;;;;;;0.75;0.75;;;;;;;31.77;48.18;101755.75;5101986;28;20494;-80
2023/09/10 10:50:27;;;;;;;1.10;0.98;;;;;;;31.83;47.53;101754.28;5093455;28;20043;-80
2023/09/10 10:53:03;;;;;;;0.52;0.52;;;;;;;31.90;48.24;101755.41;5093440;28;20028;-80
2023/09/10 10:55:33;;;;;;;0.65;0.65;;;;;;;32.05;48.81;101753.03;5092925;28;20028;-81
2023/09/10 10:57:59;;;;;;;0.40;0.40;;;;;;;32.10;47.44;101756.19;5095982;28;20032;-81
2023/09/10 11:00:27;;;;;;;0.60;0.60;;;;;;;32.21;46.49;101747.81;5100604;28;20711;-81
2023/09/10 11:03:13;;;;;;;0.32;0.32;;;;;;;32.38;45.88;101750.78;5108779;28;20031;-82
2023/09/10 11:08:36;;;;;;;0.22;0.22;;;;;;;32.56;45.99;101743.47;5061026;28;20403;-81
2023/09/10 11:11:05;;;;;;;0.20;0.20;;;;;;;32.61;43.06;101747.59;5044257;28;20041;-82
2023/09/10 11:13:32;;;;;;;0.10;0.10;;;;;;;32.61;42.10;101739.38;5042642;28;20070;-82
2023/09/10 11:18:43;;;;;;;0.55;0.55;;;;;;;32.85;44.52;101739.66;5107138;27;20421;-81
2023/09/10 11:21:12;;;;;;;0.68;0.68;;;;;;;32.92;42.81;101742.63;5093243;28;20058;-82
2023/09/10 11:24:01;;;;;;;0.30;0.20;;;;;;;33.01;42.97;101738.09;5085216;28;20059;-81
2023/09/10 11:29:04;;;;;;;1.48;0.47;;;;;;;33.12;42.17;101740.59;5097222;27;20138;-80
2023/09/10 11:36:59;;;;;;;0.82;0.82;;;;;;;33.36;41.91;101730.88;5102068;27;20385;-83
2023/09/10 11:39:26;;;;;;;0.65;0.65;;;;;;;33.48;41.98;101729.59;5078853;28;20025;-82
2023/09/10 11:41:54;;;;;;;1.25;0.70;;;;;;;33.61;41.93;101728.28;5081551;28;20033;-82
2023/09/10 11:44:21;;;;;;;0.10;0.10;;;;;;;33.68;40.70;101729.38;5081112;28;20020;-80
2023/09/10 11:46:48;;;;;;;0.10;0.10;;;;;;;33.76;41.86;101732.19;5080351;28;20059;-80
2023/09/10 11:49:14;;;;;;;0.32;0.32;;;;;;;33.86;41.61;101721.97;5088300;28;20072;-81
2023/09/10 11:51:50;;;;;;;0.17;0.17;;;;;;;33.95;40.92;101722.03;5079193;28;20040;-80
2023/09/10 11:54:17;;;;;;;0.43;0.43;;;;;;;34.00;41.37;101730.63;5080054;28;20028;-81